Terminal Aerodrome Forecast
Issued by NWS

Home | Current Version | Previous Version | Text Only | Print | Product List | Glossary On
Versions: 1 2 3 4 5 6 7 8 9 10 11 12 13 14
000
FTUS45 KABQ 231726
TAFAEG
TAF
KAEG 231726Z 2318/2418 16011KT P6SM FEW250
     FM232000 19016G26KT P6SM FEW110 FEW250
     FM240200 21012KT P6SM SCT250
     FM240700 24010KT P6SM FEW250
     FM241500 24014G24KT P6SM SCT250=

USA.gov is the U.S. government's official web portal to all federal, state and local government web resources and services.